Time;durP1;ratioP1;P1;durP2;ratioP2;P2;SDS_P1;SDS_P2;PMS_P1;PMS_P2;Temp;Humidity;BMP_temperature;BMP_pressure;BME280_temperature;BME280_humidity;BME280_pressure;Samples;Min_cycle;Max_cycle;Signal;HPM_P1;HPM_P2
2024/03/17 00:00:31;;;;;;;13.70;1.42;;;3.20;99.90;;;;;;5002967;28;20046;-61
2024/03/17 00:02:57;;;;;;;10.05;1.40;;;3.30;99.90;;;;;;4986048;28;20122;-61
2024/03/17 00:05:23;;;;;;;4.82;1.27;;;3.30;99.90;;;;;;4986155;28;20091;-52
2024/03/17 00:07:49;;;;;;;3.25;1.40;;;3.20;99.90;;;;;;5002547;28;20080;-58
2024/03/17 00:10:15;;;;;;;4.93;1.58;;;3.20;99.90;;;;;;5015533;28;20053;-58
2024/03/17 00:12:41;;;;;;;5.32;1.58;;;3.20;99.90;;;;;;5009885;28;20156;-58
2024/03/17 00:15:08;;;;;;;4.22;1.50;;;3.20;99.90;;;;;;4977113;28;20050;-62
2024/03/17 00:17:34;;;;;;;6.88;1.52;;;3.10;99.90;;;;;;4998629;28;20092;-64
2024/03/17 00:20:09;;;;;;;8.35;1.77;;;3.10;99.90;;;;;;4995518;28;20687;-60
2024/03/17 00:22:39;;;;;;;10.32;2.33;;;3.10;99.90;;;;;;5000233;28;20432;-55
2024/03/17 00:25:07;;;;;;;10.85;1.90;;;3.10;99.90;;;;;;5003748;28;20052;-61
2024/03/17 00:27:33;;;;;;;5.47;1.80;;;3.10;99.90;;;;;;5007715;28;20487;-61
2024/03/17 00:30:10;;;;;;;3.55;1.73;;;3.20;99.90;;;;;;4969355;28;20096;-56
2024/03/17 00:32:35;;;;;;;6.45;1.58;;;3.20;99.90;;;;;;4986146;28;20050;-64
2024/03/17 00:35:08;;;;;;;5.63;1.73;;;3.30;99.90;;;;;;4994059;28;20050;-57
2024/03/17 00:37:34;;;;;;;8.63;1.90;;;3.30;99.90;;;;;;5001851;28;20050;-50
2024/03/17 00:40:01;;;;;;;6.22;2.03;;;3.40;99.90;;;;;;5003267;28;20464;-60
2024/03/17 00:42:27;;;;;;;4.70;2.08;;;3.40;99.90;;;;;;5004764;28;20472;-62
2024/03/17 00:44:53;;;;;;;5.75;1.65;;;3.50;99.90;;;;;;5003044;28;20061;-60
2024/03/17 00:47:18;;;;;;;10.15;1.58;;;3.50;99.90;;;;;;5002679;28;20125;-57
2024/03/17 00:49:44;;;;;;;7.32;1.58;;;3.60;99.90;;;;;;5003995;28;20401;-63
2024/03/17 00:52:10;;;;;;;10.18;2.05;;;3.60;99.90;;;;;;5006833;28;20046;-51
2024/03/17 00:54:36;;;;;;;7.45;1.95;;;3.70;99.90;;;;;;5002461;28;20476;-62
2024/03/17 00:57:01;;;;;;;13.82;1.90;;;3.60;99.90;;;;;;5001114;28;20050;-51
2024/03/17 00:59:27;;;;;;;12.75;2.10;;;3.70;99.90;;;;;;5001171;28;20665;-56
2024/03/17 01:01:53;;;;;;;3.95;1.48;;;3.80;99.90;;;;;;5005507;28;20064;-57
2024/03/17 01:04:19;;;;;;;8.88;2.05;;;3.70;99.90;;;;;;4995795;28;20060;-60
2024/03/17 01:06:45;;;;;;;14.30;2.35;;;3.80;99.90;;;;;;5002436;28;20046;-56
2024/03/17 01:09:11;;;;;;;9.65;2.28;;;3.80;99.90;;;;;;5005694;28;20639;-62
2024/03/17 01:11:37;;;;;;;5.20;1.70;;;3.80;99.90;;;;;;5012656;28;20081;-61
2024/03/17 01:14:04;;;;;;;4.65;1.75;;;3.80;99.90;;;;;;5008253;28;20049;-51
2024/03/17 01:16:30;;;;;;;9.60;2.00;;;3.80;99.90;;;;;;4994193;28;20345;-58
2024/03/17 01:18:56;;;;;;;8.88;2.17;;;3.80;99.90;;;;;;4995444;28;20651;-58
2024/03/17 01:21:22;;;;;;;10.75;1.95;;;3.80;99.90;;;;;;5001436;28;20417;-50
2024/03/17 01:23:49;;;;;;;8.25;1.70;;;3.80;99.90;;;;;;5002045;28;20575;-63
2024/03/17 01:26:15;;;;;;;13.80;2.10;;;3.90;99.90;;;;;;5008318;28;20479;-58
2024/03/17 01:28:41;;;;;;;7.38;1.77;;;3.90;99.90;;;;;;5006908;28;20045;-63
2024/03/17 01:31:07;;;;;;;10.40;1.90;;;3.90;99.90;;;;;;5008117;28;20061;-59
2024/03/17 01:33:33;;;;;;;4.85;1.65;;;3.90;99.90;;;;;;5001596;28;20145;-54
2024/03/17 01:35:58;;;;;;;8.43;2.38;;;3.90;99.90;;;;;;5001819;28;20121;-54
2024/03/17 01:38:24;;;;;;;8.38;1.50;;;3.90;99.90;;;;;;4986753;28;20081;-58
2024/03/17 01:40:50;;;;;;;17.00;2.00;;;3.90;99.90;;;;;;4998097;28;20061;-55
2024/03/17 01:43:16;;;;;;;5.72;1.58;;;3.90;99.90;;;;;;5000645;28;20044;-58
2024/03/17 01:45:43;;;;;;;7.65;2.40;;;3.90;99.90;;;;;;5008733;28;20419;-62
2024/03/17 01:48:19;;;;;;;11.38;2.10;;;3.80;99.90;;;;;;5007127;28;20056;-57
2024/03/17 01:50:47;;;;;;;14.57;2.10;;;3.70;99.90;;;;;;4999734;28;20096;-58
2024/03/17 01:53:14;;;;;;;6.30;2.00;;;3.80;99.90;;;;;;5008538;28;20046;-60
2024/03/17 01:55:43;;;;;;;3.28;1.60;;;3.70;99.90;;;;;;4999617;28;20133;-55
2024/03/17 01:58:10;;;;;;;6.20;1.45;;;3.70;99.90;;;;;;5005153;28;20044;-54
2024/03/17 02:00:38;;;;;;;3.85;1.70;;;3.70;99.90;;;;;;5003250;28;20404;-56
2024/03/17 02:03:08;;;;;;;9.18;1.85;;;3.70;99.90;;;;;;4987474;28;20053;-59
2024/03/17 02:05:38;;;;;;;10.35;2.22;;;3.70;99.90;;;;;;4998981;28;20603;-57
2024/03/17 02:08:07;;;;;;;2.90;1.63;;;3.70;99.90;;;;;;4982541;28;20689;-61
2024/03/17 02:10:34;;;;;;;10.65;1.88;;;3.70;99.90;;;;;;4996420;28;20061;-62
2024/03/17 02:13:00;;;;;;;11.20;2.72;;;3.60;99.90;;;;;;4990382;28;20064;-56
2024/03/17 02:15:26;;;;;;;7.78;1.92;;;3.60;99.90;;;;;;4983253;28;20125;-55
2024/03/17 02:17:52;;;;;;;13.45;1.75;;;3.60;99.90;;;;;;5000071;28;20156;-61
2024/03/17 02:20:18;;;;;;;6.75;1.60;;;3.50;99.90;;;;;;4974734;28;20096;-61
2024/03/17 02:22:44;;;;;;;3.33;1.60;;;3.40;99.90;;;;;;4982867;28;20523;-61
2024/03/17 02:25:10;;;;;;;5.13;1.63;;;3.40;99.90;;;;;;5004135;28;20050;-64
2024/03/17 02:27:36;;;;;;;9.35;1.60;;;3.40;99.90;;;;;;4998503;28;20567;-63
2024/03/17 02:30:09;;;;;;;12.80;3.38;;;3.30;99.90;;;;;;5004860;28;20049;-52
2024/03/17 02:32:36;;;;;;;6.63;1.75;;;3.20;99.90;;;;;;5002503;28;20037;-63
2024/03/17 02:35:02;;;;;;;9.68;1.58;;;3.00;99.90;;;;;;5011385;28;20152;-57
2024/03/17 02:37:28;;;;;;;6.75;1.40;;;3.00;99.90;;;;;;4985713;28;20676;-57
2024/03/17 02:39:54;;;;;;;4.00;1.45;;;3.00;99.90;;;;;;5000220;28;20129;-59
2024/03/17 02:42:19;;;;;;;3.55;1.67;;;3.00;99.90;;;;;;5000597;28;20082;-64
2024/03/17 02:44:45;;;;;;;7.75;1.70;;;2.90;99.90;;;;;;5005616;28;20041;-52
2024/03/17 02:47:14;;;;;;;7.32;1.83;;;2.80;99.90;;;;;;4974770;28;20043;-56
2024/03/17 02:49:43;;;;;;;3.35;1.60;;;2.80;99.90;;;;;;4985037;28;20060;-57
2024/03/17 02:52:10;;;;;;;4.70;1.98;;;2.70;99.90;;;;;;4993214;28;20151;-55
2024/03/17 02:54:36;;;;;;;7.60;2.00;;;2.70;99.90;;;;;;5001471;28;20592;-58
2024/03/17 02:57:09;;;;;;;2.78;1.40;;;2.70;99.90;;;;;;5001941;28;20041;-52
2024/03/17 02:59:35;;;;;;;4.63;2.13;;;2.70;99.90;;;;;;5000150;28;20049;-57
2024/03/17 03:02:02;;;;;;;5.43;1.65;;;2.70;99.90;;;;;;5002330;28;20054;-65
2024/03/17 03:04:28;;;;;;;8.55;2.25;;;2.70;99.90;;;;;;4995500;28;20038;-51
2024/03/17 03:06:53;;;;;;;6.55;1.77;;;2.60;99.90;;;;;;5001844;28;20562;-57
2024/03/17 03:09:30;;;;;;;4.45;1.83;;;2.60;99.90;;;;;;5001730;28;20076;-52
2024/03/17 03:11:56;;;;;;;2.22;1.98;;;2.60;99.90;;;;;;5018375;28;20403;-60
2024/03/17 03:14:22;;;;;;;3.28;1.73;;;2.60;99.90;;;;;;5001346;28;20034;-56
2024/03/17 03:16:49;;;;;;;7.75;2.03;;;2.50;99.90;;;;;;4998426;28;20038;-51
2024/03/17 03:19:15;;;;;;;4.82;1.70;;;2.50;99.90;;;;;;5002341;28;20048;-53
2024/03/17 03:21:41;;;;;;;7.72;1.80;;;2.50;99.90;;;;;;5003252;28;20038;-59
2024/03/17 03:24:07;;;;;;;1.67;1.45;;;2.50;99.90;;;;;;5004103;28;20476;-66
2024/03/17 03:26:33;;;;;;;9.70;2.40;;;2.40;99.90;;;;;;5003426;28;20042;-62
2024/03/17 03:28:59;;;;;;;8.90;2.45;;;2.50;99.90;;;;;;4986828;28;20053;-59
2024/03/17 03:31:24;;;;;;;6.05;2.08;;;2.50;99.90;;;;;;4988360;28;20057;-55
2024/03/17 03:33:50;;;;;;;6.93;1.70;;;2.50;99.90;;;;;;5006021;28;20064;-58
2024/03/17 03:36:18;;;;;;;4.20;1.80;;;2.40;99.90;;;;;;5002905;28;20129;-54
2024/03/17 03:38:44;;;;;;;2.55;1.55;;;2.40;99.90;;;;;;5006974;28;20046;-59
2024/03/17 03:41:13;;;;;;;7.28;2.53;;;2.30;99.90;;;;;;5009420;28;20049;-53
2024/03/17 03:43:39;;;;;;;3.10;1.67;;;2.30;99.90;;;;;;5007477;28;20041;-52
2024/03/17 03:46:08;;;;;;;1.80;1.35;;;2.40;99.90;;;;;;5011212;28;20053;-57
2024/03/17 03:48:36;;;;;;;6.53;1.60;;;2.30;99.90;;;;;;5003930;28;20057;-58
2024/03/17 03:51:07;;;;;;;2.95;1.20;;;2.40;99.90;;;;;;5002855;28;20108;-60
2024/03/17 03:53:33;;;;;;;7.57;1.60;;;2.30;99.90;;;;;;4994183;28;20050;-54
2024/03/17 03:56:01;;;;;;;7.80;1.73;;;2.40;99.90;;;;;;5000324;28;20057;-63
2024/03/17 03:58:29;;;;;;;5.15;1.60;;;2.30;99.90;;;;;;5005514;28;20878;-61
2024/03/17 04:00:56;;;;;;;5.47;1.80;;;2.40;99.90;;;;;;5002027;28;20132;-55
2024/03/17 04:03:22;;;;;;;8.98;1.90;;;2.40;99.90;;;;;;4986643;28;20057;-61
2024/03/17 04:05:48;;;;;;;9.27;2.25;;;2.40;99.90;;;;;;5003218;28;20128;-61
2024/03/17 04:08:13;;;;;;;4.35;1.52;;;2.40;99.90;;;;;;5006137;28;20052;-49
2024/03/17 04:10:39;;;;;;;6.95;2.05;;;2.30;99.90;;;;;;4991749;28;20067;-58
2024/03/17 04:13:05;;;;;;;4.03;1.60;;;2.40;99.90;;;;;;5013813;28;20046;-62
2024/03/17 04:15:30;;;;;;;4.05;1.48;;;2.30;99.90;;;;;;4987558;28;20061;-58
2024/03/17 04:17:56;;;;;;;4.18;1.58;;;2.30;99.90;;;;;;5012801;28;20597;-60
2024/03/17 04:20:22;;;;;;;5.35;1.55;;;2.30;99.90;;;;;;5016865;28;20134;-57
2024/03/17 04:22:48;;;;;;;3.70;1.80;;;2.20;99.90;;;;;;4988721;28;20281;-57
2024/03/17 04:25:14;;;;;;;9.48;2.10;;;2.20;99.90;;;;;;5003806;28;20090;-61
2024/03/17 04:27:40;;;;;;;5.15;1.50;;;2.20;99.90;;;;;;4985104;28;20049;-56
2024/03/17 04:30:07;;;;;;;7.45;1.88;;;2.10;99.90;;;;;;5006965;28;20045;-51
2024/03/17 04:32:33;;;;;;;3.55;1.60;;;2.10;99.90;;;;;;5010734;28;20048;-56
2024/03/17 04:34:59;;;;;;;7.20;1.88;;;2.20;99.90;;;;;;4985737;28;20456;-61
2024/03/17 04:37:25;;;;;;;3.92;1.40;;;2.20;99.90;;;;;;4984466;28;20073;-62
2024/03/17 04:39:51;;;;;;;3.63;1.63;;;2.10;99.90;;;;;;5003212;28;20038;-57
2024/03/17 04:42:19;;;;;;;5.57;1.98;;;2.20;99.90;;;;;;5003764;28;20045;-50
2024/03/17 04:44:45;;;;;;;5.82;2.13;;;2.20;99.90;;;;;;4998572;28;20484;-58
2024/03/17 04:47:12;;;;;;;4.68;1.40;;;2.20;99.90;;;;;;5012609;28;20511;-60
2024/03/17 04:49:42;;;;;;;3.80;1.55;;;2.30;99.90;;;;;;5002136;28;20104;-60
2024/03/17 04:52:09;;;;;;;4.65;1.52;;;2.30;99.90;;;;;;4995523;28;20058;-54
2024/03/17 04:54:35;;;;;;;2.25;1.60;;;2.40;99.90;;;;;;5001923;28;20054;-58
2024/03/17 04:57:01;;;;;;;3.65;1.60;;;2.50;99.90;;;;;;5003616;28;20108;-57
2024/03/17 04:59:27;;;;;;;8.43;1.63;;;2.50;99.90;;;;;;5012960;28;20135;-45
2024/03/17 05:01:53;;;;;;;11.40;2.17;;;2.60;99.90;;;;;;5005610;28;20050;-58
2024/03/17 05:04:19;;;;;;;3.85;1.35;;;2.60;99.90;;;;;;4991210;28;20057;-58
2024/03/17 05:06:49;;;;;;;4.90;2.08;;;2.60;99.90;;;;;;4986284;28;20052;-56
2024/03/17 05:09:16;;;;;;;2.67;1.33;;;2.60;99.90;;;;;;4998791;28;20096;-65
2024/03/17 05:11:42;;;;;;;7.68;1.42;;;2.70;99.90;;;;;;4973947;28;20072;-65
2024/03/17 05:14:08;;;;;;;9.60;2.15;;;2.70;99.90;;;;;;5004030;28;20046;-59
2024/03/17 05:16:34;;;;;;;6.47;2.25;;;2.80;99.90;;;;;;4984307;28;20085;-61
2024/03/17 05:19:00;;;;;;;9.10;1.85;;;2.70;99.90;;;;;;4999812;28;20088;-65
2024/03/17 05:21:26;;;;;;;5.97;2.08;;;2.80;99.90;;;;;;4991130;28;20042;-62
2024/03/17 05:23:52;;;;;;;6.82;1.80;;;2.80;99.90;;;;;;5002692;28;20496;-61
2024/03/17 05:26:18;;;;;;;5.88;2.00;;;2.80;99.90;;;;;;4999657;28;20050;-56
2024/03/17 05:28:47;;;;;;;3.13;1.95;;;2.90;99.90;;;;;;5004473;28;20451;-53
2024/03/17 05:31:15;;;;;;;5.05;1.90;;;3.00;99.90;;;;;;5000812;28;20046;-65
2024/03/17 05:33:41;;;;;;;8.65;1.85;;;3.10;99.90;;;;;;5010542;28;20081;-62
2024/03/17 05:36:07;;;;;;;8.95;2.25;;;3.10;99.90;;;;;;5000461;28;20045;-49
2024/03/17 05:38:32;;;;;;;6.97;2.70;;;3.20;99.90;;;;;;5004928;28;20325;-56
2024/03/17 05:40:59;;;;;;;9.90;2.63;;;3.20;99.90;;;;;;5002384;28;20042;-61
2024/03/17 05:43:26;;;;;;;9.93;2.90;;;3.20;99.90;;;;;;5004381;28;20113;-64
2024/03/17 05:45:59;;;;;;;8.68;2.70;;;3.20;99.90;;;;;;5005900;28;20109;-56
2024/03/17 05:48:25;;;;;;;13.32;2.53;;;3.20;99.90;;;;;;4985463;28;20052;-62
2024/03/17 05:50:51;;;;;;;8.75;2.72;;;3.30;99.90;;;;;;5004773;28;20058;-53
2024/03/17 05:53:18;;;;;;;5.47;1.95;;;3.40;99.90;;;;;;4978696;28;20038;-60
2024/03/17 05:55:44;;;;;;;3.85;2.17;;;3.30;99.90;;;;;;4984584;28;20054;-62
2024/03/17 05:58:11;;;;;;;5.55;1.88;;;3.40;99.90;;;;;;4999127;28;20165;-51
2024/03/17 06:00:38;;;;;;;6.47;3.00;;;3.40;99.90;;;;;;5008758;28;20522;-62
2024/03/17 06:03:05;;;;;;;5.05;2.22;;;3.40;99.90;;;;;;4984411;28;20042;-60
2024/03/17 06:05:35;;;;;;;12.05;2.70;;;3.40;99.90;;;;;;5004022;28;20041;-59
2024/03/17 06:08:05;;;;;;;4.27;2.03;;;3.50;99.90;;;;;;5008593;28;20038;-55
2024/03/17 06:10:32;;;;;;;5.22;2.08;;;3.60;99.90;;;;;;5000746;28;20053;-66
2024/03/17 06:12:58;;;;;;;3.55;2.17;;;3.50;99.90;;;;;;5008680;28;20053;-62
2024/03/17 06:15:25;;;;;;;8.40;2.35;;;3.60;99.90;;;;;;4999570;28;20040;-65
2024/03/17 06:17:51;;;;;;;8.75;2.30;;;3.60;99.90;;;;;;5013162;28;20038;-52
2024/03/17 06:20:21;;;;;;;11.30;2.45;;;3.70;99.90;;;;;;5002154;28;20042;-52
2024/03/17 06:22:47;;;;;;;3.95;2.13;;;3.80;99.90;;;;;;5003249;28;20484;-60
2024/03/17 06:25:13;;;;;;;4.40;2.05;;;3.90;99.90;;;;;;4985403;28;20058;-54
2024/03/17 06:27:40;;;;;;;9.23;2.33;;;4.00;99.90;;;;;;5014388;28;20129;-53
2024/03/17 06:30:06;;;;;;;3.80;2.22;;;4.00;99.90;;;;;;4983673;28;20050;-59
2024/03/17 06:32:35;;;;;;;4.70;2.00;;;4.00;99.90;;;;;;4981007;28;20093;-55
2024/03/17 06:35:05;;;;;;;4.72;1.80;;;4.10;99.90;;;;;;5008119;28;20049;-65
2024/03/17 06:37:30;;;;;;;14.07;3.65;;;4.10;99.90;;;;;;5000657;28;20050;-58
2024/03/17 06:39:56;;;;;;;7.72;2.28;;;4.20;99.90;;;;;;5005530;28;20240;-56
2024/03/17 06:42:22;;;;;;;5.85;2.20;;;4.30;99.90;;;;;;5001728;28;20042;-59
2024/03/17 06:44:48;;;;;;;6.43;2.35;;;4.30;99.90;;;;;;4999897;28;20247;-49
2024/03/17 06:47:13;;;;;;;6.25;2.20;;;4.40;99.90;;;;;;4999680;28;20056;-62
2024/03/17 06:49:39;;;;;;;8.43;2.45;;;4.50;99.90;;;;;;4999092;28;20042;-54
2024/03/17 06:52:05;;;;;;;4.32;1.92;;;4.60;99.90;;;;;;5005722;28;20128;-62
2024/03/17 06:54:33;;;;;;;5.00;2.05;;;4.60;99.90;;;;;;5003389;28;20041;-59
2024/03/17 06:56:59;;;;;;;5.53;2.10;;;4.70;99.90;;;;;;4991533;28;20057;-58
2024/03/17 06:59:25;;;;;;;8.57;2.03;;;4.90;99.90;;;;;;5003890;28;20452;-54
2024/03/17 07:01:51;;;;;;;10.70;2.95;;;4.90;99.90;;;;;;5003430;28;20057;-59
2024/03/17 07:04:17;;;;;;;8.63;2.05;;;5.10;99.90;;;;;;5006520;28;20050;-57
2024/03/17 07:06:43;;;;;;;11.70;2.22;;;5.20;99.90;;;;;;5006815;28;20046;-62
2024/03/17 07:09:09;;;;;;;4.78;1.88;;;5.30;99.90;;;;;;5009963;28;20162;-49
2024/03/17 07:11:35;;;;;;;5.88;2.85;;;5.40;99.90;;;;;;5002296;28;20042;-59
2024/03/17 07:14:01;;;;;;;2.25;1.80;;;5.40;99.90;;;;;;5017129;28;20135;-61
2024/03/17 07:16:27;;;;;;;4.68;2.08;;;5.40;99.90;;;;;;5012987;28;20484;-57
2024/03/17 07:18:53;;;;;;;9.50;2.28;;;5.60;99.90;;;;;;5011939;28;20225;-57
2024/03/17 07:21:18;;;;;;;10.43;2.30;;;5.60;99.90;;;;;;5016689;28;20050;-58
2024/03/17 07:23:44;;;;;;;3.10;1.85;;;5.70;99.90;;;;;;5011225;28;20044;-60
2024/03/17 07:26:10;;;;;;;8.70;2.40;;;5.80;99.90;;;;;;5014523;28;20099;-55
2024/03/17 07:28:40;;;;;;;4.05;2.00;;;5.80;99.90;;;;;;5002686;28;21108;-62
2024/03/17 07:31:08;;;;;;;11.30;2.40;;;5.90;99.90;;;;;;5004652;28;20667;-64
2024/03/17 07:33:34;;;;;;;4.47;1.83;;;6.00;99.90;;;;;;4985358;28;20046;-61
2024/03/17 07:36:00;;;;;;;3.92;1.90;;;6.00;99.90;;;;;;5004242;28;20128;-53
2024/03/17 07:38:28;;;;;;;10.63;2.03;;;6.10;99.90;;;;;;5005291;28;20042;-60
2024/03/17 07:41:05;;;;;;;9.10;2.05;;;6.10;99.90;;;;;;5003453;28;20053;-59
2024/03/17 07:43:38;;;;;;;7.70;1.90;;;6.20;99.90;;;;;;5007271;28;20076;-51
2024/03/17 07:46:05;;;;;;;4.53;1.90;;;6.20;99.90;;;;;;4982838;28;20579;-59
2024/03/17 07:48:32;;;;;;;5.28;1.83;;;6.20;99.90;;;;;;5004927;28;20066;-63
2024/03/17 07:51:08;;;;;;;11.50;1.70;;;6.20;99.90;;;;;;4984678;28;20046;-52
2024/03/17 07:53:36;;;;;;;7.85;2.05;;;6.30;99.90;;;;;;5004713;28;20439;-60
2024/03/17 07:56:09;;;;;;;6.10;1.70;;;6.40;99.90;;;;;;5003610;28;20049;-55
2024/03/17 07:58:37;;;;;;;7.38;1.63;;;6.60;99.90;;;;;;5004657;28;20065;-53
2024/03/17 08:01:14;;;;;;;5.40;1.50;;;6.80;99.90;;;;;;5013586;28;20099;-50
2024/03/17 08:03:41;;;;;;;10.90;2.20;;;6.90;99.90;;;;;;5005230;28;20045;-62
2024/03/17 08:06:08;;;;;;;6.10;1.80;;;7.10;99.90;;;;;;5004707;28;20053;-61
2024/03/17 08:08:34;;;;;;;4.70;1.63;;;7.10;99.90;;;;;;5006659;28;20041;-52
2024/03/17 08:11:03;;;;;;;8.63;2.17;;;7.10;99.90;;;;;;5015508;28;20607;-60
2024/03/17 08:13:33;;;;;;;6.68;1.88;;;7.20;99.90;;;;;;4986500;28;20092;-59
2024/03/17 08:16:08;;;;;;;12.20;1.98;;;7.20;99.90;;;;;;5001475;28;20141;-57
2024/03/17 08:18:34;;;;;;;12.75;2.53;;;7.30;99.90;;;;;;4992466;28;20408;-59
2024/03/17 08:21:03;;;;;;;8.25;1.92;;;7.40;99.90;;;;;;5011866;28;20056;-59
2024/03/17 08:23:29;;;;;;;12.98;2.28;;;7.40;99.90;;;;;;5005664;28;20484;-64
2024/03/17 08:25:59;;;;;;;9.45;1.98;;;7.40;99.90;;;;;;4995657;28;20076;-61
2024/03/17 08:28:26;;;;;;;7.72;1.95;;;7.40;99.90;;;;;;5001544;28;20076;-62
2024/03/17 08:31:03;;;;;;;7.90;1.45;;;7.50;99.90;;;;;;4985663;28;20088;-60
2024/03/17 08:33:29;;;;;;;9.32;1.55;;;7.70;99.90;;;;;;4994322;28;20488;-59
2024/03/17 08:35:56;;;;;;;11.73;1.60;;;7.80;99.90;;;;;;5003078;28;20046;-55
2024/03/17 08:38:23;;;;;;;1.83;1.10;;;7.80;99.90;;;;;;4984849;28;20436;-56
2024/03/17 08:40:50;;;;;;;11.50;2.83;;;7.90;99.90;;;;;;5000876;28;20038;-60
2024/03/17 08:43:16;;;;;;;11.35;1.13;;;7.90;99.90;;;;;;5002421;28;20113;-53
2024/03/17 08:45:43;;;;;;;5.88;1.55;;;7.90;99.90;;;;;;5002480;28;20042;-53
2024/03/17 08:48:10;;;;;;;4.10;1.25;;;7.90;99.90;;;;;;5007855;28;20045;-51
2024/03/17 08:50:36;;;;;;;7.47;1.40;;;7.90;99.90;;;;;;5001847;28;20050;-53
2024/03/17 08:53:07;;;;;;;8.05;1.63;;;7.80;99.90;;;;;;4985607;28;20203;-55
2024/03/17 08:55:33;;;;;;;5.38;1.23;;;7.90;99.90;;;;;;4991708;28;20435;-55
2024/03/17 08:57:59;;;;;;;5.90;1.40;;;7.90;99.90;;;;;;5002114;28;20480;-54
2024/03/17 09:00:25;;;;;;;8.43;1.10;;;7.90;99.90;;;;;;4995845;28;20138;-53
2024/03/17 09:02:51;;;;;;;12.43;1.58;;;7.80;99.90;;;;;;4982504;28;20056;-64
2024/03/17 09:05:16;;;;;;;8.07;3.38;;;7.90;99.90;;;;;;5015475;28;20054;-56
2024/03/17 09:07:42;;;;;;;1.70;0.80;;;7.90;99.90;;;;;;5001749;28;20034;-63
2024/03/17 09:10:08;;;;;;;7.60;1.95;;;7.90;99.90;;;;;;4998399;28;20492;-52
2024/03/17 09:12:34;;;;;;;4.15;1.45;;;7.80;77.20;;;;;;5001415;28;20041;-63
2024/03/17 09:15:00;;;;;;;4.70;1.33;;;7.80;99.90;;;;;;5007080;28;20062;-60
2024/03/17 09:17:25;;;;;;;6.88;1.23;;;7.80;88.40;;;;;;5000449;28;20188;-56
2024/03/17 09:19:51;;;;;;;4.30;1.27;;;7.80;27.30;;;;;;4991647;28;20050;-65
2024/03/17 09:22:17;;;;;;;9.70;1.52;;;7.80;1.00;;;;;;4972221;28;20045;-61
2024/03/17 09:24:43;;;;;;;5.85;1.30;;;7.90;59.40;;;;;;4998692;28;20042;-54
2024/03/17 09:27:09;;;;;;;11.35;1.60;;;7.90;1.00;;;;;;4984112;28;20177;-54
2024/03/17 09:29:35;;;;;;;10.50;1.40;;;8.00;1.00;;;;;;4995064;28;20124;-61
2024/03/17 09:32:00;;;;;;;3.50;0.98;;;8.00;1.00;;;;;;5003631;28;20252;-51
2024/03/17 09:34:26;;;;;;;4.35;1.38;;;8.00;1.00;;;;;;5005805;28;20048;-57
2024/03/17 09:36:52;;;;;;;8.00;0.98;;;8.10;1.00;;;;;;5001076;28;20046;-50
2024/03/17 09:39:19;;;;;;;10.68;1.73;;;8.20;1.00;;;;;;4981798;28;20042;-57
2024/03/17 09:41:46;;;;;;;7.15;1.48;;;8.20;1.00;;;;;;5001010;28;20135;-56
2024/03/17 09:44:13;;;;;;;4.80;1.05;;;8.20;1.00;;;;;;5005523;28;20079;-55
2024/03/17 09:46:39;;;;;;;2.25;1.10;;;8.30;1.00;;;;;;5003020;28;20396;-63
2024/03/17 09:49:14;;;;;;;10.52;1.45;;;8.30;1.00;;;;;;5001087;28;20068;-60
2024/03/17 09:51:40;;;;;;;2.13;0.88;;;8.40;1.00;;;;;;5004223;28;20045;-61
2024/03/17 09:54:27;;;;;;;9.32;1.55;;;8.40;1.00;;;;;;5002464;28;20091;-52
2024/03/17 09:56:53;;;;;;;2.67;1.10;;;8.50;99.90;;;;;;4999713;28;20049;-59
2024/03/17 09:59:19;;;;;;;4.55;1.30;;;8.50;99.90;;;;;;4999707;28;20064;-60
2024/03/17 10:01:47;;;;;;;6.38;1.13;;;8.60;99.90;;;;;;5008356;28;20457;-54
2024/03/17 10:04:32;;;;;;;12.27;1.50;;;8.60;99.90;;;;;;4984454;28;20050;-57
2024/03/17 10:06:58;;;;;;;8.07;1.20;;;8.60;99.90;;;;;;5002579;28;20480;-60
2024/03/17 10:09:24;;;;;;;5.10;1.10;;;8.70;99.90;;;;;;4997411;28;20073;-64
2024/03/17 10:11:50;;;;;;;5.15;1.08;;;8.70;99.90;;;;;;5001506;28;20057;-62
2024/03/17 10:14:17;;;;;;;8.40;1.70;;;8.80;99.90;;;;;;5001434;28;20053;-54
2024/03/17 10:16:46;;;;;;;1.83;0.98;;;8.80;99.90;;;;;;4990864;28;20045;-57
2024/03/17 10:19:23;;;;;;;8.00;1.67;;;8.90;99.90;;;;;;5004546;28;20046;-63
2024/03/17 10:21:49;;;;;;;7.05;1.63;;;8.90;99.90;;;;;;5000581;28;20139;-58
2024/03/17 10:24:20;;;;;;;0.30;0.30;;;8.90;99.90;;;;;;4966946;28;20448;-62
2024/03/17 10:26:58;;;;;;;5.75;1.65;;;8.90;99.90;;;;;;4981888;28;20681;-48
2024/03/17 10:29:37;;;;;;;11.18;1.85;;;8.90;99.90;;;;;;5000831;28;20049;-60
2024/03/17 10:32:13;;;;;;;5.05;1.70;;;8.80;99.90;;;;;;5001348;28;20107;-54
2024/03/17 10:34:39;;;;;;;5.63;1.52;;;8.90;99.90;;;;;;5006706;28;20064;-51
2024/03/17 10:37:28;;;;;;;5.20;1.52;;;9.00;99.90;;;;;;4987689;28;20038;-56
2024/03/17 10:39:55;;;;;;;11.15;1.65;;;9.10;99.90;;;;;;5001235;28;20054;-53
2024/03/17 10:42:28;;;;;;;3.92;1.50;;;9.20;99.90;;;;;;4964488;28;20120;-63
2024/03/17 10:44:55;;;;;;;3.72;1.60;;;9.30;99.90;;;;;;5002398;28;20041;-50
2024/03/17 10:47:25;;;;;;;6.43;1.73;;;9.40;99.90;;;;;;4999538;28;20045;-61
2024/03/17 10:49:53;;;;;;;7.20;1.80;;;9.50;99.90;;;;;;4997360;28;20500;-61
2024/03/17 10:52:21;;;;;;;12.82;2.70;;;9.60;99.90;;;;;;5000297;28;20408;-51
2024/03/17 10:54:48;;;;;;;6.35;1.85;;;9.70;99.90;;;;;;4978293;28;20092;-57
2024/03/17 10:57:27;;;;;;;10.30;2.50;;;9.80;99.90;;;;;;4982258;28;20041;-54
2024/03/17 10:59:53;;;;;;;9.73;2.20;;;9.80;99.90;;;;;;4994597;28;20648;-49
2024/03/17 11:02:33;;;;;;;8.23;1.90;;;9.90;99.90;;;;;;4999269;28;20084;-59
2024/03/17 11:05:19;;;;;;;7.55;2.00;;;10.00;99.90;;;;;;4996968;28;20112;-53
2024/03/17 11:07:47;;;;;;;5.07;1.73;;;10.00;99.90;;;;;;4996744;28;20053;-58
2024/03/17 11:10:24;;;;;;;7.68;2.00;;;10.10;99.90;;;;;;5001002;28;20103;-61
2024/03/17 11:13:25;;;;;;;8.45;2.33;;;10.20;99.90;;;;;;5009382;28;20570;-60
2024/03/17 11:15:53;;;;;;;11.65;3.33;;;10.30;99.90;;;;;;5004131;28;20050;-61
2024/03/17 11:18:19;;;;;;;5.70;2.35;;;10.30;99.90;;;;;;5005313;28;20052;-61
2024/03/17 11:21:11;;;;;;;7.68;2.80;;;10.30;99.90;;;;;;4985812;28;20050;-56
2024/03/17 11:23:38;;;;;;;8.73;2.63;;;10.30;99.90;;;;;;5011867;28;20447;-58
2024/03/17 11:26:06;;;;;;;12.30;2.67;;;10.40;99.90;;;;;;4979904;28;20089;-61
2024/03/17 11:28:49;;;;;;;12.77;3.08;;;10.30;99.90;;;;;;5002284;28;20058;-61
2024/03/17 11:31:35;;;;;;;8.48;2.90;;;10.40;99.90;;;;;;4990465;28;20504;-53
2024/03/17 11:34:07;;;;;;;7.80;2.97;;;10.50;99.90;;;;;;4999766;28;20083;-53
2024/03/17 11:36:38;;;;;;;7.22;2.67;;;10.50;99.90;;;;;;5003899;28;20428;-61
2024/03/17 11:41:46;;;;;;;10.35;3.58;;;10.70;99.90;;;;;;4987849;28;20586;-60
2024/03/17 11:44:18;;;;;;;16.38;4.00;;;10.90;99.90;;;;;;4998662;28;20046;-59
2024/03/17 11:47:01;;;;;;;12.98;3.22;;;11.00;99.90;;;;;;4967245;28;20077;-64
2024/03/17 11:49:37;;;;;;;8.70;3.75;;;11.10;99.90;;;;;;4999197;28;20115;-50
2024/03/17 11:52:24;;;;;;;6.97;2.88;;;11.10;99.90;;;;;;4999681;28;20050;-52
2024/03/17 11:54:50;;;;;;;10.82;4.35;;;11.20;99.90;;;;;;5001512;28;20053;-59
2024/03/17 11:57:27;;;;;;;12.73;5.40;;;11.30;99.90;;;;;;4984472;28;20557;-49
2024/03/17 11:59:55;;;;;;;10.73;3.88;;;11.40;99.90;;;;;;4982988;28;20105;-64
2024/03/17 12:02:27;;;;;;;7.60;4.68;;;11.40;99.90;;;;;;4974519;28;20618;-59
2024/03/17 12:05:02;;;;;;;12.48;4.07;;;11.50;99.90;;;;;;4991304;28;20046;-55
2024/03/17 12:07:30;;;;;;;3.47;2.47;;;11.50;82.50;;;;;;5001572;28;20069;-58
2024/03/17 12:09:57;;;;;;;15.85;5.28;;;11.40;99.90;;;;;;4997863;28;20050;-60
2024/03/17 12:12:30;;;;;;;8.80;4.07;;;11.40;99.80;;;;;;5001715;28;20487;-50
2024/03/17 12:14:56;;;;;;;10.80;4.93;;;11.40;99.90;;;;;;5000734;28;20061;-54
2024/03/17 12:17:24;;;;;;;11.13;5.30;;;11.40;99.90;;;;;;5005012;28;20042;-57
2024/03/17 12:19:50;;;;;;;14.05;5.07;;;11.50;99.90;;;;;;5003311;28;20668;-62
2024/03/17 12:22:24;;;;;;;11.65;4.97;;;11.50;99.90;;;;;;4999319;28;20045;-57
2024/03/17 12:24:55;;;;;;;10.43;4.53;;;11.40;80.90;;;;;;5003312;28;20056;-65
2024/03/17 12:27:24;;;;;;;13.90;5.63;;;11.20;98.90;;;;;;4997340;28;20054;-61
2024/03/17 12:29:51;;;;;;;10.02;4.63;;;11.20;99.90;;;;;;5008553;28;20053;-60
2024/03/17 12:32:21;;;;;;;9.18;4.40;;;11.30;99.90;;;;;;5001433;28;20496;-60
2024/03/17 12:34:55;;;;;;;7.85;5.80;;;11.20;99.90;;;;;;5000535;28;20046;-59
2024/03/17 12:37:33;;;;;;;9.00;5.25;;;11.20;99.90;;;;;;5001826;28;20053;-54
2024/03/17 12:40:00;;;;;;;15.50;6.18;;;11.10;99.90;;;;;;5000903;28;20057;-57
2024/03/17 12:42:27;;;;;;;9.60;5.70;;;11.00;99.90;;;;;;4989457;28;20388;-52
2024/03/17 12:44:54;;;;;;;10.88;6.07;;;11.00;98.00;;;;;;4987559;28;20054;-62
2024/03/17 12:47:22;;;;;;;11.00;5.78;;;10.90;83.80;;;;;;5005521;28;20451;-61
2024/03/17 12:49:53;;;;;;;16.15;7.05;;;10.80;90.30;;;;;;5000341;28;20046;-64
2024/03/17 12:52:33;;;;;;;12.32;6.93;;;10.90;99.90;;;;;;4998576;28;20111;-64
2024/03/17 13:00:33;;;;;;;15.95;6.72;;;11.00;87.30;;;;;;4998281;28;20729;-50
2024/03/17 13:03:04;;;;;;;11.93;5.47;;;11.00;93.30;;;;;;4984998;28;20143;-58
2024/03/17 13:05:31;;;;;;;9.70;5.53;;;11.10;99.90;;;;;;4996162;28;20048;-58